sensor_id;sensor_type;location;lat;lon;timestamp;temperature;humidity
23717;DHT22;22094;52.130;5.598;2023-03-23T00:01:14;11.30;99.90
23717;DHT22;22094;52.130;5.598;2023-03-23T00:03:41;11.40;99.90
23717;DHT22;22094;52.130;5.598;2023-03-23T00:06:07;11.50;99.90
23717;DHT22;22094;52.130;5.598;2023-03-23T00:08:34;11.30;99.90
23717;DHT22;22094;52.130;5.598;2023-03-23T00:11:05;11.30;99.90
23717;DHT22;22094;52.130;5.598;2023-03-23T00:13:33;11.30;99.90
23717;DHT22;22094;52.130;5.598;2023-03-23T00:15:58;11.30;99.90
23717;DHT22;22094;52.130;5.598;2023-03-23T00:18:24;11.30;99.90
23717;DHT22;22094;52.130;5.598;2023-03-23T00:20:55;11.40;99.90
23717;DHT22;22094;52.130;5.598;2023-03-23T00:23:24;11.30;99.90
23717;DHT22;22094;52.130;5.598;2023-03-23T00:25:53;11.30;99.90
23717;DHT22;22094;52.130;5.598;2023-03-23T00:28:22;11.30;99.90
23717;DHT22;22094;52.130;5.598;2023-03-23T00:31:04;11.30;99.90
23717;DHT22;22094;52.130;5.598;2023-03-23T00:33:35;11.30;99.90
23717;DHT22;22094;52.130;5.598;2023-03-23T00:36:04;11.30;99.90
23717;DHT22;22094;52.130;5.598;2023-03-23T00:38:30;11.30;99.90
23717;DHT22;22094;52.130;5.598;2023-03-23T00:40:56;11.30;99.90
23717;DHT22;22094;52.130;5.598;2023-03-23T00:43:23;11.30;99.90
23717;DHT22;22094;52.130;5.598;2023-03-23T00:45:50;11.30;99.90
23717;DHT22;22094;52.130;5.598;2023-03-23T00:48:19;11.30;99.90
23717;DHT22;22094;52.130;5.598;2023-03-23T00:50:44;11.30;99.90
23717;DHT22;22094;52.130;5.598;2023-03-23T00:53:10;11.40;99.90
23717;DHT22;22094;52.130;5.598;2023-03-23T00:55:36;11.30;99.90
23717;DHT22;22094;52.130;5.598;2023-03-23T00:58:01;11.30;99.90
23717;DHT22;22094;52.130;5.598;2023-03-23T01:00:27;11.30;99.90
23717;DHT22;22094;52.130;5.598;2023-03-23T01:02:53;11.30;99.90
23717;DHT22;22094;52.130;5.598;2023-03-23T01:05:19;11.40;99.90
23717;DHT22;22094;52.130;5.598;2023-03-23T01:07:45;11.40;99.90
23717;DHT22;22094;52.130;5.598;2023-03-23T01:10:11;11.40;99.90
23717;DHT22;22094;52.130;5.598;2023-03-23T01:12:44;11.30;99.90
23717;DHT22;22094;52.130;5.598;2023-03-23T01:15:15;11.30;99.90
23717;DHT22;22094;52.130;5.598;2023-03-23T01:17:42;11.30;99.90
23717;DHT22;22094;52.130;5.598;2023-03-23T01:20:08;11.30;99.90
23717;DHT22;22094;52.130;5.598;2023-03-23T01:22:34;11.40;99.90
23717;DHT22;22094;52.130;5.598;2023-03-23T01:25:00;11.40;99.90
23717;DHT22;22094;52.130;5.598;2023-03-23T01:27:26;11.40;99.90
23717;DHT22;22094;52.130;5.598;2023-03-23T01:29:52;11.50;99.90
23717;DHT22;22094;52.130;5.598;2023-03-23T01:32:17;11.50;99.90
23717;DHT22;22094;52.130;5.598;2023-03-23T01:34:43;11.50;99.90
23717;DHT22;22094;52.130;5.598;2023-03-23T01:37:08;11.60;99.90
23717;DHT22;22094;52.130;5.598;2023-03-23T01:39:36;11.60;99.90
23717;DHT22;22094;52.130;5.598;2023-03-23T01:42:03;11.60;99.90
23717;DHT22;22094;52.130;5.598;2023-03-23T01:46:57;11.60;99.90
23717;DHT22;22094;52.130;5.598;2023-03-23T01:49:33;11.60;99.90
23717;DHT22;22094;52.130;5.598;2023-03-23T01:52:14;11.70;99.90
23717;DHT22;22094;52.130;5.598;2023-03-23T01:54:42;11.60;99.90
23717;DHT22;22094;52.130;5.598;2023-03-23T01:57:13;11.50;99.90
23717;DHT22;22094;52.130;5.598;2023-03-23T01:59:41;11.50;99.90
23717;DHT22;22094;52.130;5.598;2023-03-23T02:02:11;11.50;99.90
23717;DHT22;22094;52.130;5.598;2023-03-23T02:04:37;11.50;99.90
23717;DHT22;22094;52.130;5.598;2023-03-23T02:07:03;11.50;99.90
23717;DHT22;22094;52.130;5.598;2023-03-23T02:09:29;11.50;99.90
23717;DHT22;22094;52.130;5.598;2023-03-23T02:11:56;11.50;99.90
23717;DHT22;22094;52.130;5.598;2023-03-23T02:14:23;11.50;99.90
23717;DHT22;22094;52.130;5.598;2023-03-23T02:17:16;11.50;99.90
23717;DHT22;22094;52.130;5.598;2023-03-23T02:25:11;11.40;99.90
23717;DHT22;22094;52.130;5.598;2023-03-23T02:27:49;11.40;99.90
23717;DHT22;22094;52.130;5.598;2023-03-23T02:36:25;11.60;99.90
23717;DHT22;22094;52.130;5.598;2023-03-23T02:38:35;11.60;99.90
23717;DHT22;22094;52.130;5.598;2023-03-23T02:41:03;11.60;99.90
23717;DHT22;22094;52.130;5.598;2023-03-23T02:43:33;11.60;99.90
23717;DHT22;22094;52.130;5.598;2023-03-23T02:46:04;11.60;99.90
23717;DHT22;22094;52.130;5.598;2023-03-23T02:48:33;11.60;99.90
23717;DHT22;22094;52.130;5.598;2023-03-23T02:51:00;11.60;99.90
23717;DHT22;22094;52.130;5.598;2023-03-23T02:53:29;11.60;99.90
23717;DHT22;22094;52.130;5.598;2023-03-23T02:55:56;11.60;99.90
23717;DHT22;22094;52.130;5.598;2023-03-23T02:58:22;11.60;99.90
23717;DHT22;22094;52.130;5.598;2023-03-23T03:00:51;11.70;99.90
23717;DHT22;22094;52.130;5.598;2023-03-23T03:03:23;11.70;99.90
23717;DHT22;22094;52.130;5.598;2023-03-23T03:06:07;11.70;99.90
23717;DHT22;22094;52.130;5.598;2023-03-23T03:08:48;11.70;99.90
23717;DHT22;22094;52.130;5.598;2023-03-23T03:11:19;11.70;99.90
23717;DHT22;22094;52.130;5.598;2023-03-23T03:19:38;11.80;99.90
23717;DHT22;22094;52.130;5.598;2023-03-23T03:22:06;11.80;99.90
23717;DHT22;22094;52.130;5.598;2023-03-23T03:24:33;11.80;99.90
23717;DHT22;22094;52.130;5.598;2023-03-23T03:27:00;11.90;99.90
23717;DHT22;22094;52.130;5.598;2023-03-23T03:29:32;12.00;99.90
23717;DHT22;22094;52.130;5.598;2023-03-23T03:32:01;11.90;99.90
23717;DHT22;22094;52.130;5.598;2023-03-23T03:34:29;11.90;99.90
23717;DHT22;22094;52.130;5.598;2023-03-23T03:36:58;12.00;99.90
23717;DHT22;22094;52.130;5.598;2023-03-23T03:39:25;12.10;99.90
23717;DHT22;22094;52.130;5.598;2023-03-23T03:41:51;12.10;99.90
23717;DHT22;22094;52.130;5.598;2023-03-23T03:44:17;12.10;99.90
23717;DHT22;22094;52.130;5.598;2023-03-23T03:46:43;12.00;99.90
23717;DHT22;22094;52.130;5.598;2023-03-23T03:49:10;12.10;99.90
23717;DHT22;22094;52.130;5.598;2023-03-23T03:51:38;12.10;99.90
23717;DHT22;22094;52.130;5.598;2023-03-23T03:54:03;12.10;99.90
23717;DHT22;22094;52.130;5.598;2023-03-23T03:56:29;12.10;99.90
23717;DHT22;22094;52.130;5.598;2023-03-23T03:58:56;12.10;99.90
23717;DHT22;22094;52.130;5.598;2023-03-23T04:01:22;12.20;99.90
23717;DHT22;22094;52.130;5.598;2023-03-23T04:03:48;12.10;99.90
23717;DHT22;22094;52.130;5.598;2023-03-23T04:06:14;12.10;99.90
23717;DHT22;22094;52.130;5.598;2023-03-23T04:08:40;12.20;99.90
23717;DHT22;22094;52.130;5.598;2023-03-23T04:11:08;12.20;99.90
23717;DHT22;22094;52.130;5.598;2023-03-23T04:13:34;12.20;99.90
23717;DHT22;22094;52.130;5.598;2023-03-23T04:15:59;12.20;99.90
23717;DHT22;22094;52.130;5.598;2023-03-23T04:18:25;12.20;99.90
23717;DHT22;22094;52.130;5.598;2023-03-23T04:20:51;12.10;99.90
23717;DHT22;22094;52.130;5.598;2023-03-23T04:23:18;12.10;99.90
23717;DHT22;22094;52.130;5.598;2023-03-23T04:25:49;12.20;99.90
23717;DHT22;22094;52.130;5.598;2023-03-23T04:28:16;12.20;99.90
23717;DHT22;22094;52.130;5.598;2023-03-23T04:30:44;12.20;99.90
23717;DHT22;22094;52.130;5.598;2023-03-23T04:33:11;12.20;99.90
23717;DHT22;22094;52.130;5.598;2023-03-23T04:35:40;12.20;99.90
23717;DHT22;22094;52.130;5.598;2023-03-23T04:38:06;12.20;99.90
23717;DHT22;22094;52.130;5.598;2023-03-23T04:40:36;12.20;99.90
23717;DHT22;22094;52.130;5.598;2023-03-23T04:43:01;12.20;99.90
23717;DHT22;22094;52.130;5.598;2023-03-23T04:45:31;12.20;99.90
23717;DHT22;22094;52.130;5.598;2023-03-23T04:47:57;12.40;99.90
23717;DHT22;22094;52.130;5.598;2023-03-23T04:50:29;12.20;99.90
23717;DHT22;22094;52.130;5.598;2023-03-23T04:52:56;12.30;99.90
23717;DHT22;22094;52.130;5.598;2023-03-23T04:55:23;12.20;99.90
23717;DHT22;22094;52.130;5.598;2023-03-23T04:57:49;12.20;99.90
23717;DHT22;22094;52.130;5.598;2023-03-23T05:00:15;12.30;99.90
23717;DHT22;22094;52.130;5.598;2023-03-23T05:02:43;12.20;99.90
23717;DHT22;22094;52.130;5.598;2023-03-23T05:05:11;12.30;99.90
23717;DHT22;22094;52.130;5.598;2023-03-23T05:07:40;12.40;99.90
23717;DHT22;22094;52.130;5.598;2023-03-23T05:10:08;12.20;99.90
23717;DHT22;22094;52.130;5.598;2023-03-23T05:12:35;12.20;99.90
23717;DHT22;22094;52.130;5.598;2023-03-23T05:15:01;12.20;99.90
23717;DHT22;22094;52.130;5.598;2023-03-23T05:17:27;12.20;99.90
23717;DHT22;22094;52.130;5.598;2023-03-23T05:19:53;12.30;99.90
23717;DHT22;22094;52.130;5.598;2023-03-23T05:22:19;12.20;99.90
23717;DHT22;22094;52.130;5.598;2023-03-23T05:24:47;12.10;99.90
23717;DHT22;22094;52.130;5.598;2023-03-23T05:27:13;12.10;99.90
23717;DHT22;22094;52.130;5.598;2023-03-23T05:29:40;12.10;99.90
23717;DHT22;22094;52.130;5.598;2023-03-23T05:32:07;12.00;99.90
23717;DHT22;22094;52.130;5.598;2023-03-23T05:34:33;12.10;99.90
23717;DHT22;22094;52.130;5.598;2023-03-23T05:37:00;12.00;99.90
23717;DHT22;22094;52.130;5.598;2023-03-23T05:39:26;12.00;99.90
23717;DHT22;22094;52.130;5.598;2023-03-23T05:41:51;11.90;99.90
23717;DHT22;22094;52.130;5.598;2023-03-23T05:44:21;11.90;99.90
23717;DHT22;22094;52.130;5.598;2023-03-23T05:46:47;11.90;99.90
23717;DHT22;22094;52.130;5.598;2023-03-23T05:49:14;11.80;99.90
23717;DHT22;22094;52.130;5.598;2023-03-23T05:51:44;11.90;99.90
23717;DHT22;22094;52.130;5.598;2023-03-23T05:54:11;11.90;99.90
23717;DHT22;22094;52.130;5.598;2023-03-23T05:56:37;11.90;99.90
23717;DHT22;22094;52.130;5.598;2023-03-23T05:59:06;11.90;99.90
23717;DHT22;22094;52.130;5.598;2023-03-23T06:01:32;11.90;99.90
23717;DHT22;22094;52.130;5.598;2023-03-23T06:03:58;11.80;99.90
23717;DHT22;22094;52.130;5.598;2023-03-23T06:06:32;12.20;99.90
23717;DHT22;22094;52.130;5.598;2023-03-23T06:09:02;11.90;99.90
23717;DHT22;22094;52.130;5.598;2023-03-23T06:11:28;11.80;99.90
23717;DHT22;22094;52.130;5.598;2023-03-23T06:13:54;11.70;99.90
23717;DHT22;22094;52.130;5.598;2023-03-23T06:16:20;11.40;99.90
23717;DHT22;22094;52.130;5.598;2023-03-23T06:18:45;11.10;99.90
23717;DHT22;22094;52.130;5.598;2023-03-23T06:21:12;10.90;99.90
23717;DHT22;22094;52.130;5.598;2023-03-23T06:23:38;10.80;99.90
23717;DHT22;22094;52.130;5.598;2023-03-23T06:26:07;10.80;99.90
23717;DHT22;22094;52.130;5.598;2023-03-23T06:28:33;10.80;99.90
23717;DHT22;22094;52.130;5.598;2023-03-23T06:31:03;10.70;99.90
23717;DHT22;22094;52.130;5.598;2023-03-23T06:33:32;10.70;99.90
23717;DHT22;22094;52.130;5.598;2023-03-23T06:36:00;10.90;99.90
23717;DHT22;22094;52.130;5.598;2023-03-23T06:38:25;10.70;99.90
23717;DHT22;22094;52.130;5.598;2023-03-23T06:40:55;10.80;99.90
23717;DHT22;22094;52.130;5.598;2023-03-23T06:43:23;10.80;99.90
23717;DHT22;22094;52.130;5.598;2023-03-23T06:45:49;10.90;99.90
23717;DHT22;22094;52.130;5.598;2023-03-23T06:50:45;13.10;99.90
23717;DHT22;22094;52.130;5.598;2023-03-23T06:53:12;10.90;99.90
23717;DHT22;22094;52.130;5.598;2023-03-23T06:55:38;11.00;99.90
23717;DHT22;22094;52.130;5.598;2023-03-23T06:58:05;11.00;99.90
23717;DHT22;22094;52.130;5.598;2023-03-23T07:00:32;11.00;99.90
23717;DHT22;22094;52.130;5.598;2023-03-23T07:02:57;13.30;99.90
23717;DHT22;22094;52.130;5.598;2023-03-23T07:05:23;11.20;99.90
23717;DHT22;22094;52.130;5.598;2023-03-23T07:07:50;11.30;99.90
23717;DHT22;22094;52.130;5.598;2023-03-23T07:10:15;11.30;99.90
23717;DHT22;22094;52.130;5.598;2023-03-23T07:12:41;11.30;99.90
23717;DHT22;22094;52.130;5.598;2023-03-23T07:15:08;11.40;99.90
23717;DHT22;22094;52.130;5.598;2023-03-23T07:20:03;11.30;99.90
23717;DHT22;22094;52.130;5.598;2023-03-23T07:22:30;11.30;99.90
23717;DHT22;22094;52.130;5.598;2023-03-23T07:24:55;14.20;99.90
23717;DHT22;22094;52.130;5.598;2023-03-23T07:27:21;11.30;99.90
23717;DHT22;22094;52.130;5.598;2023-03-23T07:29:47;11.40;99.90
23717;DHT22;22094;52.130;5.598;2023-03-23T07:32:12;11.30;99.90
23717;DHT22;22094;52.130;5.598;2023-03-23T07:34:38;11.30;99.90
23717;DHT22;22094;52.130;5.598;2023-03-23T07:37:04;13.90;99.90
23717;DHT22;22094;52.130;5.598;2023-03-23T07:39:31;11.20;99.90
23717;DHT22;22094;52.130;5.598;2023-03-23T07:41:57;11.30;99.90
23717;DHT22;22094;52.130;5.598;2023-03-23T07:44:22;11.50;99.90
23717;DHT22;22094;52.130;5.598;2023-03-23T07:46:48;11.50;99.90
23717;DHT22;22094;52.130;5.598;2023-03-23T07:49:14;11.50;99.90
23717;DHT22;22094;52.130;5.598;2023-03-23T07:54:07;11.60;99.90
23717;DHT22;22094;52.130;5.598;2023-03-23T07:56:34;11.60;99.90
23717;DHT22;22094;52.130;5.598;2023-03-23T07:59:00;11.40;99.90
23717;DHT22;22094;52.130;5.598;2023-03-23T08:01:26;11.70;99.90
23717;DHT22;22094;52.130;5.598;2023-03-23T08:03:52;11.50;99.90
23717;DHT22;22094;52.130;5.598;2023-03-23T08:08:46;11.60;99.90
23717;DHT22;22094;52.130;5.598;2023-03-23T08:13:41;11.80;99.90
23717;DHT22;22094;52.130;5.598;2023-03-23T08:16:07;11.60;99.90
23717;DHT22;22094;52.130;5.598;2023-03-23T08:21:00;11.60;99.90
23717;DHT22;22094;52.130;5.598;2023-03-23T08:23:26;12.80;99.90
23717;DHT22;22094;52.130;5.598;2023-03-23T08:25:52;11.50;99.90
23717;DHT22;22094;52.130;5.598;2023-03-23T08:28:19;11.50;99.90
23717;DHT22;22094;52.130;5.598;2023-03-23T08:30:44;11.40;99.90
23717;DHT22;22094;52.130;5.598;2023-03-23T08:33:10;11.60;99.90
23717;DHT22;22094;52.130;5.598;2023-03-23T08:35:37;12.20;99.90
23717;DHT22;22094;52.130;5.598;2023-03-23T08:38:03;11.60;99.90
23717;DHT22;22094;52.130;5.598;2023-03-23T08:40:29;12.00;99.90
23717;DHT22;22094;52.130;5.598;2023-03-23T08:42:55;11.70;99.90
23717;DHT22;22094;52.130;5.598;2023-03-23T08:45:23;11.70;99.90
23717;DHT22;22094;52.130;5.598;2023-03-23T08:47:49;11.80;99.90
23717;DHT22;22094;52.130;5.598;2023-03-23T08:50:19;15.20;99.90
23717;DHT22;22094;52.130;5.598;2023-03-23T08:55:12;14.50;99.90
23717;DHT22;22094;52.130;5.598;2023-03-23T09:00:06;12.10;99.90
23717;DHT22;22094;52.130;5.598;2023-03-23T09:02:48;12.20;99.90
23717;DHT22;22094;52.130;5.598;2023-03-23T09:05:16;12.20;99.90
23717;DHT22;22094;52.130;5.598;2023-03-23T09:07:45;12.10;99.90
23717;DHT22;22094;52.130;5.598;2023-03-23T09:10:12;13.10;99.90
23717;DHT22;22094;52.130;5.598;2023-03-23T09:15:06;12.60;99.90
23717;DHT22;22094;52.130;5.598;2023-03-23T09:22:25;15.00;99.90
23717;DHT22;22094;52.130;5.598;2023-03-23T09:29:44;14.30;99.90
23717;DHT22;22094;52.130;5.598;2023-03-23T09:37:04;13.40;99.90
23717;DHT22;22094;52.130;5.598;2023-03-23T09:39:30;15.90;99.90
23717;DHT22;22094;52.130;5.598;2023-03-23T09:42:07;13.60;99.90
23717;DHT22;22094;52.130;5.598;2023-03-23T09:50:16;13.70;99.90
23717;DHT22;22094;52.130;5.598;2023-03-23T09:52:52;12.60;99.90
23717;DHT22;22094;52.130;5.598;2023-03-23T09:55:21;13.80;99.90
23717;DHT22;22094;52.130;5.598;2023-03-23T10:10:26;13.50;99.90
23717;DHT22;22094;52.130;5.598;2023-03-23T10:13:01;14.20;99.90
23717;DHT22;22094;52.130;5.598;2023-03-23T10:15:33;16.80;99.90
23717;DHT22;22094;52.130;5.598;2023-03-23T10:20:43;15.00;99.90
23717;DHT22;22094;52.130;5.598;2023-03-23T10:26:29;14.60;99.90
23717;DHT22;22094;52.130;5.598;2023-03-23T10:29:01;13.60;99.90
23717;DHT22;22094;52.130;5.598;2023-03-23T10:31:34;14.60;99.90
23717;DHT22;22094;52.130;5.598;2023-03-23T10:34:12;15.30;99.90
23717;DHT22;22094;52.130;5.598;2023-03-23T10:37:52;14.80;99.90
23717;DHT22;22094;52.130;5.598;2023-03-23T10:40:00;14.90;99.90
23717;DHT22;22094;52.130;5.598;2023-03-23T10:42:28;15.50;99.90
23717;DHT22;22094;52.130;5.598;2023-03-23T10:44:56;14.70;99.90
23717;DHT22;22094;52.130;5.598;2023-03-23T10:47:23;15.40;99.90
23717;DHT22;22094;52.130;5.598;2023-03-23T10:49:58;15.40;99.90
23717;DHT22;22094;52.130;5.598;2023-03-23T10:52:36;15.70;99.90
23717;DHT22;22094;52.130;5.598;2023-03-23T10:55:12;16.10;99.90
23717;DHT22;22094;52.130;5.598;2023-03-23T10:57:40;15.20;99.90
23717;DHT22;22094;52.130;5.598;2023-03-23T11:02:43;17.70;99.90
23717;DHT22;22094;52.130;5.598;2023-03-23T11:05:19;16.70;99.90
23717;DHT22;22094;52.130;5.598;2023-03-23T11:07:56;16.40;99.90
23717;DHT22;22094;52.130;5.598;2023-03-23T11:10:34;16.30;99.90
23717;DHT22;22094;52.130;5.598;2023-03-23T11:13:00;16.20;99.90
23717;DHT22;22094;52.130;5.598;2023-03-23T11:15:36;15.40;99.90
23717;DHT22;22094;52.130;5.598;2023-03-23T11:18:10;15.30;99.90
23717;DHT22;22094;52.130;5.598;2023-03-23T11:20:38;15.40;99.90
23717;DHT22;22094;52.130;5.598;2023-03-23T11:28:42;15.40;99.90
23717;DHT22;22094;52.130;5.598;2023-03-23T11:31:09;18.20;99.90
23717;DHT22;22094;52.130;5.598;2023-03-23T11:36:38;14.50;99.90
23717;DHT22;22094;52.130;5.598;2023-03-23T11:39:24;15.10;99.90
23717;DHT22;22094;52.130;5.598;2023-03-23T11:41:51;16.30;99.90
23717;DHT22;22094;52.130;5.598;2023-03-23T11:44:16;14.90;99.90
23717;DHT22;22094;52.130;5.598;2023-03-23T11:47:07;12.10;99.90
23717;DHT22;22094;52.130;5.598;2023-03-23T11:49:49;15.50;99.90
23717;DHT22;22094;52.130;5.598;2023-03-23T11:55:08;13.60;99.90
23717;DHT22;22094;52.130;5.598;2023-03-23T12:00:10;14.80;99.90
23717;DHT22;22094;52.130;5.598;2023-03-23T12:05:47;12.60;99.90
23717;DHT22;22094;52.130;5.598;2023-03-23T12:08:46;14.00;99.90
23717;DHT22;22094;52.130;5.598;2023-03-23T12:19:53;12.90;99.90
23717;DHT22;22094;52.130;5.598;2023-03-23T12:30:53;11.70;99.90
23717;DHT22;22094;52.130;5.598;2023-03-23T12:39:40;14.30;99.90
23717;DHT22;22094;52.130;5.598;2023-03-23T12:45:20;14.70;99.90
23717;DHT22;22094;52.130;5.598;2023-03-23T12:48:04;16.40;99.90
23717;DHT22;22094;52.130;5.598;2023-03-23T12:51:21;16.70;99.90
23717;DHT22;22094;52.130;5.598;2023-03-23T12:53:40;15.20;99.90
23717;DHT22;22094;52.130;5.598;2023-03-23T12:56:34;15.10;99.90
23717;DHT22;22094;52.130;5.598;2023-03-23T12:59:15;17.40;99.90
23717;DHT22;22094;52.130;5.598;2023-03-23T13:01:47;15.30;99.90
23717;DHT22;22094;52.130;5.598;2023-03-23T13:04:36;16.30;99.90
23717;DHT22;22094;52.130;5.598;2023-03-23T13:07:06;15.50;99.90
23717;DHT22;22094;52.130;5.598;2023-03-23T13:12:30;17.20;99.90
23717;DHT22;22094;52.130;5.598;2023-03-23T13:18:26;13.70;99.90
23717;DHT22;22094;52.130;5.598;2023-03-23T13:20:58;15.90;99.90
23717;DHT22;22094;52.130;5.598;2023-03-23T13:23:38;15.90;99.90
23717;DHT22;22094;52.130;5.598;2023-03-23T13:26:10;15.70;99.90
23717;DHT22;22094;52.130;5.598;2023-03-23T13:28:58;15.70;99.90
23717;DHT22;22094;52.130;5.598;2023-03-23T13:31:27;15.40;99.90
23717;DHT22;22094;52.130;5.598;2023-03-23T13:34:03;16.70;99.90
23717;DHT22;22094;52.130;5.598;2023-03-23T13:36:36;15.20;99.90
23717;DHT22;22094;52.130;5.598;2023-03-23T13:39:04;15.30;99.90
23717;DHT22;22094;52.130;5.598;2023-03-23T13:44:18;17.40;99.90
23717;DHT22;22094;52.130;5.598;2023-03-23T13:46:57;15.10;99.90
23717;DHT22;22094;52.130;5.598;2023-03-23T13:49:32;15.00;99.90
23717;DHT22;22094;52.130;5.598;2023-03-23T13:54:45;14.80;99.90
23717;DHT22;22094;52.130;5.598;2023-03-23T13:57:32;16.00;99.90
23717;DHT22;22094;52.130;5.598;2023-03-23T13:59:59;14.70;99.90
23717;DHT22;22094;52.130;5.598;2023-03-23T14:02:41;14.70;99.90
23717;DHT22;22094;52.130;5.598;2023-03-23T14:05:32;14.70;99.90
23717;DHT22;22094;52.130;5.598;2023-03-23T14:13:31;14.40;99.90
23717;DHT22;22094;52.130;5.598;2023-03-23T14:16:13;13.10;99.90
23717;DHT22;22094;52.130;5.598;2023-03-23T14:18:40;11.30;99.90
23717;DHT22;22094;52.130;5.598;2023-03-23T14:21:15;12.30;99.90
23717;DHT22;22094;52.130;5.598;2023-03-23T14:23:42;12.60;99.90
23717;DHT22;22094;52.130;5.598;2023-03-23T14:26:15;12.70;99.90
23717;DHT22;22094;52.130;5.598;2023-03-23T14:28:44;13.20;99.90
23717;DHT22;22094;52.130;5.598;2023-03-23T14:41:04;13.60;99.90
23717;DHT22;22094;52.130;5.598;2023-03-23T14:43:31;15.50;99.90
23717;DHT22;22094;52.130;5.598;2023-03-23T14:46:01;16.40;99.90
23717;DHT22;22094;52.130;5.598;2023-03-23T14:48:27;17.20;99.90
23717;DHT22;22094;52.130;5.598;2023-03-23T14:51:02;18.30;99.90
23717;DHT22;22094;52.130;5.598;2023-03-23T14:53:39;16.10;99.90
23717;DHT22;22094;52.130;5.598;2023-03-23T14:56:14;17.50;99.90
23717;DHT22;22094;52.130;5.598;2023-03-23T14:58:47;17.20;99.90
23717;DHT22;22094;52.130;5.598;2023-03-23T15:01:32;18.40;99.90
23717;DHT22;22094;52.130;5.598;2023-03-23T15:04:16;17.40;99.90
23717;DHT22;22094;52.130;5.598;2023-03-23T15:06:45;17.60;99.90
23717;DHT22;22094;52.130;5.598;2023-03-23T15:09:16;18.60;99.90
23717;DHT22;22094;52.130;5.598;2023-03-23T15:11:51;18.40;99.90
23717;DHT22;22094;52.130;5.598;2023-03-23T15:14:22;18.60;99.90
23717;DHT22;22094;52.130;5.598;2023-03-23T15:16:52;19.70;99.90
23717;DHT22;22094;52.130;5.598;2023-03-23T15:19:23;18.50;99.90
23717;DHT22;22094;52.130;5.598;2023-03-23T15:21:57;18.70;99.90
23717;DHT22;22094;52.130;5.598;2023-03-23T15:24:34;18.70;99.90
23717;DHT22;22094;52.130;5.598;2023-03-23T15:27:17;19.10;99.90
23717;DHT22;22094;52.130;5.598;2023-03-23T15:29:54;19.10;99.90
23717;DHT22;22094;52.130;5.598;2023-03-23T15:32:41;18.40;99.90
23717;DHT22;22094;52.130;5.598;2023-03-23T15:35:22;18.50;99.90
23717;DHT22;22094;52.130;5.598;2023-03-23T15:38:15;19.50;99.90
23717;DHT22;22094;52.130;5.598;2023-03-23T15:40:38;18.00;99.90
23717;DHT22;22094;52.130;5.598;2023-03-23T15:43:18;17.50;99.90
23717;DHT22;22094;52.130;5.598;2023-03-23T15:48:51;19.80;99.90
23717;DHT22;22094;52.130;5.598;2023-03-23T15:51:21;18.90;99.90
23717;DHT22;22094;52.130;5.598;2023-03-23T15:53:49;19.20;99.90
23717;DHT22;22094;52.130;5.598;2023-03-23T15:56:16;19.00;99.90
23717;DHT22;22094;52.130;5.598;2023-03-23T15:58:42;19.20;99.90
23717;DHT22;22094;52.130;5.598;2023-03-23T16:01:12;19.10;99.90
23717;DHT22;22094;52.130;5.598;2023-03-23T16:03:42;19.30;99.90
23717;DHT22;22094;52.130;5.598;2023-03-23T16:06:11;18.30;99.90
23717;DHT22;22094;52.130;5.598;2023-03-23T16:08:37;17.90;99.90
23717;DHT22;22094;52.130;5.598;2023-03-23T16:11:06;17.70;99.90
23717;DHT22;22094;52.130;5.598;2023-03-23T16:13:32;16.70;99.90
23717;DHT22;22094;52.130;5.598;2023-03-23T16:15:57;17.00;99.90
23717;DHT22;22094;52.130;5.598;2023-03-23T16:18:23;17.30;99.90
23717;DHT22;22094;52.130;5.598;2023-03-23T16:23:16;17.10;99.90
23717;DHT22;22094;52.130;5.598;2023-03-23T16:25:41;19.90;99.90
23717;DHT22;22094;52.130;5.598;2023-03-23T16:28:13;15.80;99.90
23717;DHT22;22094;52.130;5.598;2023-03-23T16:30:40;16.30;99.90
23717;DHT22;22094;52.130;5.598;2023-03-23T16:33:06;15.50;99.90
23717;DHT22;22094;52.130;5.598;2023-03-23T16:35:32;15.20;99.90
23717;DHT22;22094;52.130;5.598;2023-03-23T16:37:58;15.10;99.90
23717;DHT22;22094;52.130;5.598;2023-03-23T16:40:24;15.00;99.90
23717;DHT22;22094;52.130;5.598;2023-03-23T16:45:17;14.80;99.90
23717;DHT22;22094;52.130;5.598;2023-03-23T16:47:44;14.80;99.90
23717;DHT22;22094;52.130;5.598;2023-03-23T16:50:13;14.80;99.90
23717;DHT22;22094;52.130;5.598;2023-03-23T16:52:41;14.70;99.90
23717;DHT22;22094;52.130;5.598;2023-03-23T16:55:08;15.60;99.90
23717;DHT22;22094;52.130;5.598;2023-03-23T16:57:34;14.60;99.90
23717;DHT22;22094;52.130;5.598;2023-03-23T17:00:06;14.60;99.90
23717;DHT22;22094;52.130;5.598;2023-03-23T17:02:33;14.90;99.90
23717;DHT22;22094;52.130;5.598;2023-03-23T17:04:59;14.70;99.90
23717;DHT22;22094;52.130;5.598;2023-03-23T17:07:25;14.60;99.90
23717;DHT22;22094;52.130;5.598;2023-03-23T17:09:50;14.70;99.90
23717;DHT22;22094;52.130;5.598;2023-03-23T17:12:16;15.50;99.90
23717;DHT22;22094;52.130;5.598;2023-03-23T17:14:42;14.90;99.90
23717;DHT22;22094;52.130;5.598;2023-03-23T17:17:07;15.40;99.90
23717;DHT22;22094;52.130;5.598;2023-03-23T17:19:33;14.60;99.90
23717;DHT22;22094;52.130;5.598;2023-03-23T17:21:59;16.10;99.90
23717;DHT22;22094;52.130;5.598;2023-03-23T17:24:25;16.40;99.90
23717;DHT22;22094;52.130;5.598;2023-03-23T17:26:52;14.30;99.90
23717;DHT22;22094;52.130;5.598;2023-03-23T17:29:17;14.30;99.90
23717;DHT22;22094;52.130;5.598;2023-03-23T17:31:43;14.20;99.90
23717;DHT22;22094;52.130;5.598;2023-03-23T17:34:09;14.10;99.90
23717;DHT22;22094;52.130;5.598;2023-03-23T17:36:35;14.10;99.90
23717;DHT22;22094;52.130;5.598;2023-03-23T17:39:00;14.30;99.90
23717;DHT22;22094;52.130;5.598;2023-03-23T17:41:26;14.00;99.90
23717;DHT22;22094;52.130;5.598;2023-03-23T17:43:52;13.90;99.90
23717;DHT22;22094;52.130;5.598;2023-03-23T17:46:17;13.90;99.90
23717;DHT22;22094;52.130;5.598;2023-03-23T17:48:43;13.90;99.90
23717;DHT22;22094;52.130;5.598;2023-03-23T17:51:09;13.80;99.90
23717;DHT22;22094;52.130;5.598;2023-03-23T17:53:35;13.80;99.90
23717;DHT22;22094;52.130;5.598;2023-03-23T17:56:02;13.80;99.90
23717;DHT22;22094;52.130;5.598;2023-03-23T17:58:27;13.80;99.90
23717;DHT22;22094;52.130;5.598;2023-03-23T18:00:54;13.70;99.90
23717;DHT22;22094;52.130;5.598;2023-03-23T18:03:20;13.90;99.90
23717;DHT22;22094;52.130;5.598;2023-03-23T18:05:46;13.70;99.90
23717;DHT22;22094;52.130;5.598;2023-03-23T18:08:12;13.70;99.90
23717;DHT22;22094;52.130;5.598;2023-03-23T18:10:39;13.70;99.90
23717;DHT22;22094;52.130;5.598;2023-03-23T18:13:06;13.60;99.90
23717;DHT22;22094;52.130;5.598;2023-03-23T18:15:32;13.70;99.90
23717;DHT22;22094;52.130;5.598;2023-03-23T18:17:59;13.60;99.90
23717;DHT22;22094;52.130;5.598;2023-03-23T18:20:27;13.50;99.90
23717;DHT22;22094;52.130;5.598;2023-03-23T18:22:53;13.50;99.90
23717;DHT22;22094;52.130;5.598;2023-03-23T18:25:19;13.40;99.90